sensor_id;sensor_type;location;lat;lon;timestamp;temperature;humidity
67196;DHT22;54122;53.538;49.366;2022-08-19T00:01:40;16.50;46.40
67196;DHT22;54122;53.538;49.366;2022-08-19T00:04:13;16.40;46.40
67196;DHT22;54122;53.538;49.366;2022-08-19T00:06:45;16.40;46.50
67196;DHT22;54122;53.538;49.366;2022-08-19T00:09:17;16.40;46.30
67196;DHT22;54122;53.538;49.366;2022-08-19T00:11:50;16.30;46.30
67196;DHT22;54122;53.538;49.366;2022-08-19T00:14:22;16.30;46.40
67196;DHT22;54122;53.538;49.366;2022-08-19T00:16:53;16.30;46.10
67196;DHT22;54122;53.538;49.366;2022-08-19T00:19:25;16.30;46.10
67196;DHT22;54122;53.538;49.366;2022-08-19T00:21:56;16.20;46.30
67196;DHT22;54122;53.538;49.366;2022-08-19T00:24:27;16.10;46.50
67196;DHT22;54122;53.538;49.366;2022-08-19T00:26:59;16.10;46.30
67196;DHT22;54122;53.538;49.366;2022-08-19T00:29:32;16.10;46.30
67196;DHT22;54122;53.538;49.366;2022-08-19T00:32:03;16.10;46.40
67196;DHT22;54122;53.538;49.366;2022-08-19T00:34:35;16.00;46.60
67196;DHT22;54122;53.538;49.366;2022-08-19T00:37:06;16.00;46.40
67196;DHT22;54122;53.538;49.366;2022-08-19T00:39:37;16.00;46.60
67196;DHT22;54122;53.538;49.366;2022-08-19T00:42:09;15.90;47.80
67196;DHT22;54122;53.538;49.366;2022-08-19T00:44:40;15.90;46.80
67196;DHT22;54122;53.538;49.366;2022-08-19T00:47:11;15.90;46.80
67196;DHT22;54122;53.538;49.366;2022-08-19T00:49:47;15.80;47.00
67196;DHT22;54122;53.538;49.366;2022-08-19T00:52:29;15.70;47.00
67196;DHT22;54122;53.538;49.366;2022-08-19T00:55:03;15.70;47.00
67196;DHT22;54122;53.538;49.366;2022-08-19T00:57:36;15.80;46.90
67196;DHT22;54122;53.538;49.366;2022-08-19T01:00:09;15.70;46.90
67196;DHT22;54122;53.538;49.366;2022-08-19T01:02:42;15.70;48.00
67196;DHT22;54122;53.538;49.366;2022-08-19T01:05:17;15.70;46.90
67196;DHT22;54122;53.538;49.366;2022-08-19T01:07:49;15.60;47.10
67196;DHT22;54122;53.538;49.366;2022-08-19T01:10:23;15.60;47.20
67196;DHT22;54122;53.538;49.366;2022-08-19T01:12:56;15.60;47.40
67196;DHT22;54122;53.538;49.366;2022-08-19T01:15:30;15.50;47.50
67196;DHT22;54122;53.538;49.366;2022-08-19T01:18:04;15.50;47.70
67196;DHT22;54122;53.538;49.366;2022-08-19T01:20:37;15.50;47.70
67196;DHT22;54122;53.538;49.366;2022-08-19T01:23:08;15.50;47.70
67196;DHT22;54122;53.538;49.366;2022-08-19T01:25:57;15.50;47.70
67196;DHT22;54122;53.538;49.366;2022-08-19T01:28:29;15.40;47.70
67196;DHT22;54122;53.538;49.366;2022-08-19T01:31:00;15.40;48.00
67196;DHT22;54122;53.538;49.366;2022-08-19T01:33:31;15.40;48.00
67196;DHT22;54122;53.538;49.366;2022-08-19T01:36:24;15.40;48.00
67196;DHT22;54122;53.538;49.366;2022-08-19T01:38:54;15.40;48.10
67196;DHT22;54122;53.538;49.366;2022-08-19T01:41:25;15.50;47.90
67196;DHT22;54122;53.538;49.366;2022-08-19T01:43:57;15.50;47.90
67196;DHT22;54122;53.538;49.366;2022-08-19T01:46:28;15.50;47.90
67196;DHT22;54122;53.538;49.366;2022-08-19T01:48:59;15.50;47.90
67196;DHT22;54122;53.538;49.366;2022-08-19T01:51:31;15.50;48.00
67196;DHT22;54122;53.538;49.366;2022-08-19T01:54:02;15.50;48.00
67196;DHT22;54122;53.538;49.366;2022-08-19T01:56:34;15.50;47.90
67196;DHT22;54122;53.538;49.366;2022-08-19T01:59:12;15.60;47.60
67196;DHT22;54122;53.538;49.366;2022-08-19T02:01:45;15.70;47.30
67196;DHT22;54122;53.538;49.366;2022-08-19T02:04:16;15.80;46.90
67196;DHT22;54122;53.538;49.366;2022-08-19T02:06:47;16.20;46.20
67196;DHT22;54122;53.538;49.366;2022-08-19T02:09:19;16.90;44.90
67196;DHT22;54122;53.538;49.366;2022-08-19T02:11:50;17.80;42.60
67196;DHT22;54122;53.538;49.366;2022-08-19T02:14:21;18.40;40.20
67196;DHT22;54122;53.538;49.366;2022-08-19T02:16:52;19.10;38.60
67196;DHT22;54122;53.538;49.366;2022-08-19T02:19:24;19.50;37.80
67196;DHT22;54122;53.538;49.366;2022-08-19T02:21:55;20.00;36.60
67196;DHT22;54122;53.538;49.366;2022-08-19T02:24:27;20.30;35.80
67196;DHT22;54122;53.538;49.366;2022-08-19T02:26:58;20.60;35.50
67196;DHT22;54122;53.538;49.366;2022-08-19T02:29:29;20.80;34.50
67196;DHT22;54122;53.538;49.366;2022-08-19T02:32:00;21.00;34.40
67196;DHT22;54122;53.538;49.366;2022-08-19T02:34:32;21.10;34.00
67196;DHT22;54122;53.538;49.366;2022-08-19T02:37:03;21.50;33.40
67196;DHT22;54122;53.538;49.366;2022-08-19T02:39:34;21.60;32.40
67196;DHT22;54122;53.538;49.366;2022-08-19T02:42:06;22.00;32.50
67196;DHT22;54122;53.538;49.366;2022-08-19T02:44:37;22.30;31.20
67196;DHT22;54122;53.538;49.366;2022-08-19T02:47:09;22.40;30.40
67196;DHT22;54122;53.538;49.366;2022-08-19T02:49:41;22.30;30.20
67196;DHT22;54122;53.538;49.366;2022-08-19T02:52:12;22.30;30.10
67196;DHT22;54122;53.538;49.366;2022-08-19T02:54:43;22.30;30.00
67196;DHT22;54122;53.538;49.366;2022-08-19T02:57:15;22.40;30.00
67196;DHT22;54122;53.538;49.366;2022-08-19T02:59:46;22.80;29.70
67196;DHT22;54122;53.538;49.366;2022-08-19T03:02:17;23.10;29.10
67196;DHT22;54122;53.538;49.366;2022-08-19T03:04:48;23.40;28.80
67196;DHT22;54122;53.538;49.366;2022-08-19T03:07:20;23.60;28.60
67196;DHT22;54122;53.538;49.366;2022-08-19T03:09:51;23.80;28.20
67196;DHT22;54122;53.538;49.366;2022-08-19T03:12:22;23.90;27.90
67196;DHT22;54122;53.538;49.366;2022-08-19T03:14:53;24.00;27.50
67196;DHT22;54122;53.538;49.366;2022-08-19T03:17:25;23.90;27.70
67196;DHT22;54122;53.538;49.366;2022-08-19T03:19:56;23.90;27.60
67196;DHT22;54122;53.538;49.366;2022-08-19T03:22:27;24.00;27.40
67196;DHT22;54122;53.538;49.366;2022-08-19T03:24:59;23.80;27.40
67196;DHT22;54122;53.538;49.366;2022-08-19T03:27:31;23.90;27.60
67196;DHT22;54122;53.538;49.366;2022-08-19T03:30:02;24.40;27.30
67196;DHT22;54122;53.538;49.366;2022-08-19T03:32:33;24.80;26.70
67196;DHT22;54122;53.538;49.366;2022-08-19T03:35:05;24.80;26.90
67196;DHT22;54122;53.538;49.366;2022-08-19T03:37:36;25.00;27.70
67196;DHT22;54122;53.538;49.366;2022-08-19T03:40:08;25.30;26.20
67196;DHT22;54122;53.538;49.366;2022-08-19T03:42:39;25.40;26.20
67196;DHT22;54122;53.538;49.366;2022-08-19T03:45:13;25.40;26.30
67196;DHT22;54122;53.538;49.366;2022-08-19T03:47:44;25.40;26.10
67196;DHT22;54122;53.538;49.366;2022-08-19T03:50:16;25.50;26.60
67196;DHT22;54122;53.538;49.366;2022-08-19T03:52:48;25.60;26.40
67196;DHT22;54122;53.538;49.366;2022-08-19T03:55:21;25.80;26.20
67196;DHT22;54122;53.538;49.366;2022-08-19T03:57:52;26.00;26.20
67196;DHT22;54122;53.538;49.366;2022-08-19T04:00:23;26.30;26.00
67196;DHT22;54122;53.538;49.366;2022-08-19T04:02:54;26.50;25.70
67196;DHT22;54122;53.538;49.366;2022-08-19T04:05:27;26.90;25.70
67196;DHT22;54122;53.538;49.366;2022-08-19T04:07:59;27.10;25.40
67196;DHT22;54122;53.538;49.366;2022-08-19T04:10:35;27.00;25.10
67196;DHT22;54122;53.538;49.366;2022-08-19T04:13:06;27.10;25.10
67196;DHT22;54122;53.538;49.366;2022-08-19T04:15:40;27.30;25.00
67196;DHT22;54122;53.538;49.366;2022-08-19T04:18:12;27.40;25.20
67196;DHT22;54122;53.538;49.366;2022-08-19T04:20:44;27.60;24.70
67196;DHT22;54122;53.538;49.366;2022-08-19T04:23:15;27.40;25.10
67196;DHT22;54122;53.538;49.366;2022-08-19T04:25:47;27.30;25.30
67196;DHT22;54122;53.538;49.366;2022-08-19T04:28:19;27.20;25.30
67196;DHT22;54122;53.538;49.366;2022-08-19T04:30:51;27.20;25.60
67196;DHT22;54122;53.538;49.366;2022-08-19T04:33:23;27.00;25.70
67196;DHT22;54122;53.538;49.366;2022-08-19T04:35:55;26.90;25.80
67196;DHT22;54122;53.538;49.366;2022-08-19T04:38:27;26.90;25.80
67196;DHT22;54122;53.538;49.366;2022-08-19T04:40:58;27.00;25.90
67196;DHT22;54122;53.538;49.366;2022-08-19T04:43:48;26.90;26.00
67196;DHT22;54122;53.538;49.366;2022-08-19T04:46:21;27.00;26.10
67196;DHT22;54122;53.538;49.366;2022-08-19T04:48:52;27.40;25.60
67196;DHT22;54122;53.538;49.366;2022-08-19T04:51:24;28.10;25.30
67196;DHT22;54122;53.538;49.366;2022-08-19T04:53:56;28.80;24.50
67196;DHT22;54122;53.538;49.366;2022-08-19T04:56:27;28.80;24.20
67196;DHT22;54122;53.538;49.366;2022-08-19T04:58:59;28.60;24.30
67196;DHT22;54122;53.538;49.366;2022-08-19T05:01:34;28.50;24.30
67196;DHT22;54122;53.538;49.366;2022-08-19T05:04:07;29.10;24.30
67196;DHT22;54122;53.538;49.366;2022-08-19T05:06:38;29.80;23.80
67196;DHT22;54122;53.538;49.366;2022-08-19T05:09:10;30.20;22.80
67196;DHT22;54122;53.538;49.366;2022-08-19T05:11:41;29.80;23.10
67196;DHT22;54122;53.538;49.366;2022-08-19T05:14:12;29.60;23.30
67196;DHT22;54122;53.538;49.366;2022-08-19T05:16:44;29.40;23.20
67196;DHT22;54122;53.538;49.366;2022-08-19T05:19:15;29.50;23.40
67196;DHT22;54122;53.538;49.366;2022-08-19T05:22:05;29.30;23.30
67196;DHT22;54122;53.538;49.366;2022-08-19T05:24:55;29.90;22.90
67196;DHT22;54122;53.538;49.366;2022-08-19T05:27:26;30.00;22.50
67196;DHT22;54122;53.538;49.366;2022-08-19T05:29:58;29.90;22.70
67196;DHT22;54122;53.538;49.366;2022-08-19T05:32:29;30.10;22.90
67196;DHT22;54122;53.538;49.366;2022-08-19T05:35:00;30.30;22.40
67196;DHT22;54122;53.538;49.366;2022-08-19T05:37:32;30.30;22.70
67196;DHT22;54122;53.538;49.366;2022-08-19T05:40:03;30.30;22.60
67196;DHT22;54122;53.538;49.366;2022-08-19T05:42:34;30.40;22.20
67196;DHT22;54122;53.538;49.366;2022-08-19T05:45:06;30.10;22.70
67196;DHT22;54122;53.538;49.366;2022-08-19T05:47:37;30.10;23.00
67196;DHT22;54122;53.538;49.366;2022-08-19T05:50:09;30.00;22.80
67196;DHT22;54122;53.538;49.366;2022-08-19T05:52:40;30.00;23.00
67196;DHT22;54122;53.538;49.366;2022-08-19T05:55:11;30.20;22.40
67196;DHT22;54122;53.538;49.366;2022-08-19T05:57:43;30.40;22.70
67196;DHT22;54122;53.538;49.366;2022-08-19T06:00:14;30.80;22.10
67196;DHT22;54122;53.538;49.366;2022-08-19T06:02:45;31.00;22.30
67196;DHT22;54122;53.538;49.366;2022-08-19T06:05:17;31.30;21.70
67196;DHT22;54122;53.538;49.366;2022-08-19T06:07:48;31.70;21.60
67196;DHT22;54122;53.538;49.366;2022-08-19T06:10:19;31.80;20.90
67196;DHT22;54122;53.538;49.366;2022-08-19T06:12:53;31.50;21.50
67196;DHT22;54122;53.538;49.366;2022-08-19T06:15:24;31.80;21.40
67196;DHT22;54122;53.538;49.366;2022-08-19T06:17:58;31.80;21.00
67196;DHT22;54122;53.538;49.366;2022-08-19T06:20:30;31.90;21.20
67196;DHT22;54122;53.538;49.366;2022-08-19T06:23:03;31.80;21.20
67196;DHT22;54122;53.538;49.366;2022-08-19T06:25:35;31.60;21.30
67196;DHT22;54122;53.538;49.366;2022-08-19T06:28:06;31.70;21.40
67196;DHT22;54122;53.538;49.366;2022-08-19T06:30:37;31.70;21.10
67196;DHT22;54122;53.538;49.366;2022-08-19T06:33:09;31.80;21.30
67196;DHT22;54122;53.538;49.366;2022-08-19T06:35:41;32.60;21.10
67196;DHT22;54122;53.538;49.366;2022-08-19T06:38:12;32.50;20.40
67196;DHT22;54122;53.538;49.366;2022-08-19T06:40:44;32.40;20.70
67196;DHT22;54122;53.538;49.366;2022-08-19T06:43:15;32.80;20.70
67196;DHT22;54122;53.538;49.366;2022-08-19T06:45:46;33.00;20.60
67196;DHT22;54122;53.538;49.366;2022-08-19T06:48:18;33.50;20.50
67196;DHT22;54122;53.538;49.366;2022-08-19T06:50:49;33.40;19.60
67196;DHT22;54122;53.538;49.366;2022-08-19T06:53:22;33.10;20.20
67196;DHT22;54122;53.538;49.366;2022-08-19T06:55:53;32.90;20.10
67196;DHT22;54122;53.538;49.366;2022-08-19T06:58:33;32.70;20.30
67196;DHT22;54122;53.538;49.366;2022-08-19T07:01:04;33.10;20.40
67196;DHT22;54122;53.538;49.366;2022-08-19T07:03:36;33.30;19.70
67196;DHT22;54122;53.538;49.366;2022-08-19T07:06:12;32.90;19.60
67196;DHT22;54122;53.538;49.366;2022-08-19T07:08:46;32.30;20.30
67196;DHT22;54122;53.538;49.366;2022-08-19T07:11:18;32.60;20.70
67196;DHT22;54122;53.538;49.366;2022-08-19T07:13:50;33.00;20.10
67196;DHT22;54122;53.538;49.366;2022-08-19T07:16:22;33.00;19.80
67196;DHT22;54122;53.538;49.366;2022-08-19T07:18:53;32.70;20.00
67196;DHT22;54122;53.538;49.366;2022-08-19T07:21:26;32.10;20.10
67196;DHT22;54122;53.538;49.366;2022-08-19T07:23:58;31.90;20.80
67196;DHT22;54122;53.538;49.366;2022-08-19T07:26:31;32.00;20.70
67196;DHT22;54122;53.538;49.366;2022-08-19T07:29:03;32.00;20.80
67196;DHT22;54122;53.538;49.366;2022-08-19T07:31:34;32.40;20.40
67196;DHT22;54122;53.538;49.366;2022-08-19T07:34:09;32.60;20.60
67196;DHT22;54122;53.538;49.366;2022-08-19T07:36:41;32.70;20.30
67196;DHT22;54122;53.538;49.366;2022-08-19T07:39:15;32.70;20.10
67196;DHT22;54122;53.538;49.366;2022-08-19T07:41:47;32.60;20.90
67196;DHT22;54122;53.538;49.366;2022-08-19T07:44:19;32.30;20.40
67196;DHT22;54122;53.538;49.366;2022-08-19T07:46:53;32.50;20.80
67196;DHT22;54122;53.538;49.366;2022-08-19T07:49:24;33.00;20.10
67196;DHT22;54122;53.538;49.366;2022-08-19T07:52:01;33.10;20.00
67196;DHT22;54122;53.538;49.366;2022-08-19T07:54:34;33.20;19.40
67196;DHT22;54122;53.538;49.366;2022-08-19T07:57:06;32.70;19.80
67196;DHT22;54122;53.538;49.366;2022-08-19T07:59:37;32.50;20.30
67196;DHT22;54122;53.538;49.366;2022-08-19T08:02:09;32.30;20.10
67196;DHT22;54122;53.538;49.366;2022-08-19T08:04:40;32.10;19.90
67196;DHT22;54122;53.538;49.366;2022-08-19T08:07:30;31.90;20.40
67196;DHT22;54122;53.538;49.366;2022-08-19T08:10:20;31.90;20.50
67196;DHT22;54122;53.538;49.366;2022-08-19T08:12:51;32.10;20.10
67196;DHT22;54122;53.538;49.366;2022-08-19T08:15:22;32.10;20.20
67196;DHT22;54122;53.538;49.366;2022-08-19T08:17:54;32.00;20.30
67196;DHT22;54122;53.538;49.366;2022-08-19T08:20:27;32.40;20.10
67196;DHT22;54122;53.538;49.366;2022-08-19T08:22:58;32.30;19.50
67196;DHT22;54122;53.538;49.366;2022-08-19T08:25:48;31.90;20.10
67196;DHT22;54122;53.538;49.366;2022-08-19T08:28:20;31.60;20.00
67196;DHT22;54122;53.538;49.366;2022-08-19T08:30:51;31.30;20.40
67196;DHT22;54122;53.538;49.366;2022-08-19T08:33:24;31.00;20.30
67196;DHT22;54122;53.538;49.366;2022-08-19T08:35:55;31.30;20.70
67196;DHT22;54122;53.538;49.366;2022-08-19T09:40:11;29.40;21.60
67196;DHT22;54122;53.538;49.366;2022-08-19T09:42:43;29.20;22.40
67196;DHT22;54122;53.538;49.366;2022-08-19T09:45:15;29.20;22.00
67196;DHT22;54122;53.538;49.366;2022-08-19T09:47:48;28.90;22.50
67196;DHT22;54122;53.538;49.366;2022-08-19T09:50:19;28.50;23.00
67196;DHT22;54122;53.538;49.366;2022-08-19T09:52:51;28.20;23.00
67196;DHT22;54122;53.538;49.366;2022-08-19T09:55:24;27.80;23.40
67196;DHT22;54122;53.538;49.366;2022-08-19T09:57:55;27.50;23.90
67196;DHT22;54122;53.538;49.366;2022-08-19T10:00:27;27.30;24.30
67196;DHT22;54122;53.538;49.366;2022-08-19T10:02:58;27.20;24.90
67196;DHT22;54122;53.538;49.366;2022-08-19T10:05:29;27.20;24.80
67196;DHT22;54122;53.538;49.366;2022-08-19T10:08:20;27.10;25.00
67196;DHT22;54122;53.538;49.366;2022-08-19T10:10:52;27.00;24.50
67196;DHT22;54122;53.538;49.366;2022-08-19T10:13:24;27.00;24.90
67196;DHT22;54122;53.538;49.366;2022-08-19T10:16:02;27.10;25.10
67196;DHT22;54122;53.538;49.366;2022-08-19T10:18:33;27.30;24.30
67196;DHT22;54122;53.538;49.366;2022-08-19T10:21:09;27.30;23.20
67196;DHT22;54122;53.538;49.366;2022-08-19T10:23:42;27.30;24.20
67196;DHT22;54122;53.538;49.366;2022-08-19T10:26:18;27.30;24.00
67196;DHT22;54122;53.538;49.366;2022-08-19T10:28:49;27.20;23.90
67196;DHT22;54122;53.538;49.366;2022-08-19T10:31:22;27.10;24.40
67196;DHT22;54122;53.538;49.366;2022-08-19T10:33:54;27.00;24.00
67196;DHT22;54122;53.538;49.366;2022-08-19T10:36:33;26.90;23.80
67196;DHT22;54122;53.538;49.366;2022-08-19T10:39:06;26.80;24.00
67196;DHT22;54122;53.538;49.366;2022-08-19T10:41:39;26.70;23.40
67196;DHT22;54122;53.538;49.366;2022-08-19T10:44:11;26.60;23.80
67196;DHT22;54122;53.538;49.366;2022-08-19T10:46:43;26.60;23.90
67196;DHT22;54122;53.538;49.366;2022-08-19T10:49:18;26.70;24.20
67196;DHT22;54122;53.538;49.366;2022-08-19T10:51:50;26.60;23.40
67196;DHT22;54122;53.538;49.366;2022-08-19T10:54:40;26.50;23.30
67196;DHT22;54122;53.538;49.366;2022-08-19T10:57:30;26.40;23.20
67196;DHT22;54122;53.538;49.366;2022-08-19T11:00:01;26.30;24.00
67196;DHT22;54122;53.538;49.366;2022-08-19T11:02:33;26.40;24.10
67196;DHT22;54122;53.538;49.366;2022-08-19T11:05:04;26.40;24.00
67196;DHT22;54122;53.538;49.366;2022-08-19T11:07:39;26.40;23.50
67196;DHT22;54122;53.538;49.366;2022-08-19T11:10:12;26.40;23.10
67196;DHT22;54122;53.538;49.366;2022-08-19T11:12:44;26.30;23.40
67196;DHT22;54122;53.538;49.366;2022-08-19T11:15:17;26.30;23.40
67196;DHT22;54122;53.538;49.366;2022-08-19T11:17:48;26.30;23.70
67196;DHT22;54122;53.538;49.366;2022-08-19T11:20:19;26.30;24.30
67196;DHT22;54122;53.538;49.366;2022-08-19T11:22:51;26.40;23.70
67196;DHT22;54122;53.538;49.366;2022-08-19T11:25:23;26.40;23.70
67196;DHT22;54122;53.538;49.366;2022-08-19T11:27:55;26.30;23.60
67196;DHT22;54122;53.538;49.366;2022-08-19T11:30:26;26.30;24.20
67196;DHT22;54122;53.538;49.366;2022-08-19T11:32:58;26.30;24.30
67196;DHT22;54122;53.538;49.366;2022-08-19T11:35:31;26.40;24.30
67196;DHT22;54122;53.538;49.366;2022-08-19T11:38:04;26.40;24.00
67196;DHT22;54122;53.538;49.366;2022-08-19T11:40:35;26.40;23.70
67196;DHT22;54122;53.538;49.366;2022-08-19T11:43:07;26.40;23.70
67196;DHT22;54122;53.538;49.366;2022-08-19T11:45:40;26.40;23.40
67196;DHT22;54122;53.538;49.366;2022-08-19T11:48:12;26.40;24.00
67196;DHT22;54122;53.538;49.366;2022-08-19T11:50:43;26.40;23.40
67196;DHT22;54122;53.538;49.366;2022-08-19T11:53:15;26.30;23.10
67196;DHT22;54122;53.538;49.366;2022-08-19T11:55:47;26.30;23.20
67196;DHT22;54122;53.538;49.366;2022-08-19T11:58:19;26.20;23.40
67196;DHT22;54122;53.538;49.366;2022-08-19T12:00:50;26.20;23.30
67196;DHT22;54122;53.538;49.366;2022-08-19T12:03:22;26.20;23.20
67196;DHT22;54122;53.538;49.366;2022-08-19T12:05:53;26.10;23.00
67196;DHT22;54122;53.538;49.366;2022-08-19T12:08:24;26.00;22.90
67196;DHT22;54122;53.538;49.366;2022-08-19T12:10:55;26.00;23.00
67196;DHT22;54122;53.538;49.366;2022-08-19T12:13:28;26.00;22.90
67196;DHT22;54122;53.538;49.366;2022-08-19T12:15:59;26.00;22.10
67196;DHT22;54122;53.538;49.366;2022-08-19T12:18:30;26.00;22.00
67196;DHT22;54122;53.538;49.366;2022-08-19T12:21:02;26.00;22.30
67196;DHT22;54122;53.538;49.366;2022-08-19T12:23:34;25.90;22.20
67196;DHT22;54122;53.538;49.366;2022-08-19T12:26:06;25.90;22.40
67196;DHT22;54122;53.538;49.366;2022-08-19T12:28:38;25.80;22.50
67196;DHT22;54122;53.538;49.366;2022-08-19T12:31:10;25.70;23.20
67196;DHT22;54122;53.538;49.366;2022-08-19T12:33:43;25.70;23.00
67196;DHT22;54122;53.538;49.366;2022-08-19T12:36:14;25.70;22.50
67196;DHT22;54122;53.538;49.366;2022-08-19T12:38:46;25.80;22.60
67196;DHT22;54122;53.538;49.366;2022-08-19T12:41:17;25.70;22.50
67196;DHT22;54122;53.538;49.366;2022-08-19T12:43:49;25.70;22.40
67196;DHT22;54122;53.538;49.366;2022-08-19T12:46:21;25.70;22.60
67196;DHT22;54122;53.538;49.366;2022-08-19T12:48:52;25.60;23.10
67196;DHT22;54122;53.538;49.366;2022-08-19T12:51:24;25.70;23.40
67196;DHT22;54122;53.538;49.366;2022-08-19T12:53:56;25.70;23.10
67196;DHT22;54122;53.538;49.366;2022-08-19T12:56:27;25.60;23.10
67196;DHT22;54122;53.538;49.366;2022-08-19T12:59:00;25.60;22.90
67196;DHT22;54122;53.538;49.366;2022-08-19T13:01:32;25.60;23.20
67196;DHT22;54122;53.538;49.366;2022-08-19T13:04:03;25.50;23.00
67196;DHT22;54122;53.538;49.366;2022-08-19T13:06:34;25.40;23.30
67196;DHT22;54122;53.538;49.366;2022-08-19T13:09:06;25.40;23.50
67196;DHT22;54122;53.538;49.366;2022-08-19T13:11:37;25.30;23.70
67196;DHT22;54122;53.538;49.366;2022-08-19T13:14:09;25.30;23.60
67196;DHT22;54122;53.538;49.366;2022-08-19T13:16:42;25.30;23.80
67196;DHT22;54122;53.538;49.366;2022-08-19T13:19:13;25.30;23.60
67196;DHT22;54122;53.538;49.366;2022-08-19T13:21:45;25.20;23.70
67196;DHT22;54122;53.538;49.366;2022-08-19T13:24:19;25.20;23.70
67196;DHT22;54122;53.538;49.366;2022-08-19T13:26:51;25.10;23.30
67196;DHT22;54122;53.538;49.366;2022-08-19T13:29:22;25.10;23.50
67196;DHT22;54122;53.538;49.366;2022-08-19T13:32:12;25.00;22.90
67196;DHT22;54122;53.538;49.366;2022-08-19T13:35:02;25.00;22.30
67196;DHT22;54122;53.538;49.366;2022-08-19T13:37:33;25.00;22.90
67196;DHT22;54122;53.538;49.366;2022-08-19T13:40:16;24.90;22.90
67196;DHT22;54122;53.538;49.366;2022-08-19T13:42:49;24.90;23.20
67196;DHT22;54122;53.538;49.366;2022-08-19T13:45:23;24.90;22.70
67196;DHT22;54122;53.538;49.366;2022-08-19T13:47:55;24.90;22.70
67196;DHT22;54122;53.538;49.366;2022-08-19T13:50:28;24.80;22.20
67196;DHT22;54122;53.538;49.366;2022-08-19T13:53:00;24.80;22.40
67196;DHT22;54122;53.538;49.366;2022-08-19T13:55:31;24.70;22.10
67196;DHT22;54122;53.538;49.366;2022-08-19T13:58:02;24.70;22.00
67196;DHT22;54122;53.538;49.366;2022-08-19T14:00:35;24.60;22.70
67196;DHT22;54122;53.538;49.366;2022-08-19T14:03:07;24.50;22.90
67196;DHT22;54122;53.538;49.366;2022-08-19T14:05:39;24.50;23.10
67196;DHT22;54122;53.538;49.366;2022-08-19T14:08:10;24.40;22.90
67196;DHT22;54122;53.538;49.366;2022-08-19T14:10:45;24.40;23.00
67196;DHT22;54122;53.538;49.366;2022-08-19T14:13:18;24.30;22.50
67196;DHT22;54122;53.538;49.366;2022-08-19T14:15:50;24.20;22.50
67196;DHT22;54122;53.538;49.366;2022-08-19T14:18:21;24.10;22.50
67196;DHT22;54122;53.538;49.366;2022-08-19T14:20:53;24.00;22.50
67196;DHT22;54122;53.538;49.366;2022-08-19T14:23:25;24.00;22.40
67196;DHT22;54122;53.538;49.366;2022-08-19T14:26:03;23.80;22.70
67196;DHT22;54122;53.538;49.366;2022-08-19T14:28:34;23.80;22.90
67196;DHT22;54122;53.538;49.366;2022-08-19T14:31:06;23.70;23.00
67196;DHT22;54122;53.538;49.366;2022-08-19T14:33:38;23.60;23.10
67196;DHT22;54122;53.538;49.366;2022-08-19T14:36:09;23.50;23.40
67196;DHT22;54122;53.538;49.366;2022-08-19T14:38:40;23.40;23.10
67196;DHT22;54122;53.538;49.366;2022-08-19T14:41:16;23.30;23.30
67196;DHT22;54122;53.538;49.366;2022-08-19T14:43:49;23.20;23.30
67196;DHT22;54122;53.538;49.366;2022-08-19T14:46:22;23.10;23.60
67196;DHT22;54122;53.538;49.366;2022-08-19T14:48:56;23.00;23.90
67196;DHT22;54122;53.538;49.366;2022-08-19T14:51:27;23.00;24.00
67196;DHT22;54122;53.538;49.366;2022-08-19T14:53:59;22.90;24.10
67196;DHT22;54122;53.538;49.366;2022-08-19T14:56:30;22.80;24.30
67196;DHT22;54122;53.538;49.366;2022-08-19T14:59:02;22.80;24.40
67196;DHT22;54122;53.538;49.366;2022-08-19T15:01:33;22.70;24.20
67196;DHT22;54122;53.538;49.366;2022-08-19T15:04:05;22.70;24.30
67196;DHT22;54122;53.538;49.366;2022-08-19T15:06:37;22.70;24.60
67196;DHT22;54122;53.538;49.366;2022-08-19T15:09:08;22.60;24.50
67196;DHT22;54122;53.538;49.366;2022-08-19T15:11:40;22.60;24.70
67196;DHT22;54122;53.538;49.366;2022-08-19T15:14:11;22.50;24.90
67196;DHT22;54122;53.538;49.366;2022-08-19T15:16:42;22.40;25.00
67196;DHT22;54122;53.538;49.366;2022-08-19T15:19:14;22.40;25.10
67196;DHT22;54122;53.538;49.366;2022-08-19T15:21:45;22.30;25.10
67196;DHT22;54122;53.538;49.366;2022-08-19T15:24:16;22.30;25.10
67196;DHT22;54122;53.538;49.366;2022-08-19T15:26:48;22.30;25.20
67196;DHT22;54122;53.538;49.366;2022-08-19T15:29:19;22.20;25.20
67196;DHT22;54122;53.538;49.366;2022-08-19T15:31:51;22.10;25.40
67196;DHT22;54122;53.538;49.366;2022-08-19T15:34:27;22.10;26.30
67196;DHT22;54122;53.538;49.366;2022-08-19T15:37:07;22.00;25.70
67196;DHT22;54122;53.538;49.366;2022-08-19T15:39:38;21.90;25.90
67196;DHT22;54122;53.538;49.366;2022-08-19T15:42:09;21.80;26.10
67196;DHT22;54122;53.538;49.366;2022-08-19T15:44:41;21.60;26.30
67196;DHT22;54122;53.538;49.366;2022-08-19T15:47:13;21.40;26.60
67196;DHT22;54122;53.538;49.366;2022-08-19T15:49:44;21.30;26.90
67196;DHT22;54122;53.538;49.366;2022-08-19T15:52:18;21.20;27.10
67196;DHT22;54122;53.538;49.366;2022-08-19T15:54:50;21.10;27.10
67196;DHT22;54122;53.538;49.366;2022-08-19T15:57:21;21.10;27.40
67196;DHT22;54122;53.538;49.366;2022-08-19T15:59:52;20.90;27.50
67196;DHT22;54122;53.538;49.366;2022-08-19T16:02:42;20.80;27.60
67196;DHT22;54122;53.538;49.366;2022-08-19T16:05:32;20.80;27.90
67196;DHT22;54122;53.538;49.366;2022-08-19T16:08:21;20.60;28.00
67196;DHT22;54122;53.538;49.366;2022-08-19T16:10:53;20.50;28.20
67196;DHT22;54122;53.538;49.366;2022-08-19T16:13:24;20.40;28.40
67196;DHT22;54122;53.538;49.366;2022-08-19T16:15:56;20.40;28.50
67196;DHT22;54122;53.538;49.366;2022-08-19T16:18:29;20.30;28.80
67196;DHT22;54122;53.538;49.366;2022-08-19T16:21:01;20.20;28.90
67196;DHT22;54122;53.538;49.366;2022-08-19T16:23:33;20.10;29.10
67196;DHT22;54122;53.538;49.366;2022-08-19T16:26:04;19.90;29.70
67196;DHT22;54122;53.538;49.366;2022-08-19T16:28:36;19.70;30.60
67196;DHT22;54122;53.538;49.366;2022-08-19T16:31:07;19.50;30.90
67196;DHT22;54122;53.538;49.366;2022-08-19T16:33:39;19.30;31.70
67196;DHT22;54122;53.538;49.366;2022-08-19T16:36:10;19.20;31.80
67196;DHT22;54122;53.538;49.366;2022-08-19T16:38:43;19.10;32.10
67196;DHT22;54122;53.538;49.366;2022-08-19T16:41:18;19.00;32.60
67196;DHT22;54122;53.538;49.366;2022-08-19T16:43:49;18.90;32.50
67196;DHT22;54122;53.538;49.366;2022-08-19T16:46:22;18.80;33.80
67196;DHT22;54122;53.538;49.366;2022-08-19T16:48:54;18.70;33.70
67196;DHT22;54122;53.538;49.366;2022-08-19T16:51:25;18.60;33.90